createdAt,value
2023-03-24T00:01:27.802Z,13.43
2023-03-24T00:03:56.304Z,13.15
2023-03-24T00:06:26.588Z,13.10
2023-03-24T00:08:55.258Z,20.42
2023-03-24T00:11:26.418Z,11.80
2023-03-24T00:13:58.551Z,11.55
2023-03-24T00:16:27.549Z,12.02
2023-03-24T00:18:56.267Z,12.82
2023-03-24T00:21:26.246Z,12.38
2023-03-24T00:23:58.418Z,15.98
2023-03-24T00:26:30.012Z,9.27
2023-03-24T00:28:58.793Z,14.40
2023-03-24T00:31:27.555Z,9.80
2023-03-24T00:33:56.153Z,9.35
2023-03-24T00:36:26.857Z,12.57
2023-03-24T00:38:56.533Z,8.45
2023-03-24T00:41:28.893Z,12.43
2023-03-24T00:43:59.785Z,10.25
2023-03-24T00:46:29.090Z,10.10
2023-03-24T00:49:03.531Z,10.93
2023-03-24T00:51:35.047Z,12.52
2023-03-24T00:54:03.992Z,10.38
2023-03-24T00:56:40.252Z,13.63
2023-03-24T00:59:10.278Z,12.38
2023-03-24T01:01:41.278Z,10.07
2023-03-24T01:06:39.928Z,8.52
2023-03-24T01:09:10.598Z,14.07
2023-03-24T01:14:12.017Z,8.60
2023-03-24T01:16:40.980Z,8.67
2023-03-24T01:19:10.440Z,11.40
2023-03-24T01:21:42.295Z,9.85
2023-03-24T01:24:13.589Z,13.90
2023-03-24T01:26:43.722Z,10.55
2023-03-24T01:29:12.220Z,10.20
2023-03-24T01:31:40.906Z,9.63
2023-03-24T01:34:09.519Z,10.90
2023-03-24T01:36:38.122Z,12.63
2023-03-24T01:39:06.624Z,9.90
2023-03-24T01:41:40.438Z,13.18
2023-03-24T01:44:31.100Z,12.25
2023-03-24T01:47:00.333Z,11.80
2023-03-24T01:49:34.579Z,17.05
2023-03-24T01:52:08.685Z,17.50
2023-03-24T01:54:41.975Z,20.55
2023-03-24T01:57:16.686Z,18.63
2023-03-24T01:59:50.605Z,19.25
2023-03-24T02:02:46.067Z,21.20
2023-03-24T02:05:20.283Z,19.70
2023-03-24T02:07:53.318Z,23.20
2023-03-24T02:10:25.278Z,25.80
2023-03-24T02:12:53.835Z,22.38
2023-03-24T02:15:25.405Z,19.75
2023-03-24T02:18:06.136Z,27.25
2023-03-24T02:21:32.553Z,18.38
2023-03-24T02:24:56.162Z,24.58
2023-03-24T02:27:48.180Z,21.10
2023-03-24T02:30:59.116Z,20.23
2023-03-24T02:34:25.884Z,26.42
2023-03-24T02:37:39.728Z,21.55
2023-03-24T02:40:25.430Z,24.42
2023-03-24T02:43:21.066Z,24.17
2023-03-24T02:46:05.480Z,32.10
2023-03-24T02:48:39.281Z,23.63
2023-03-24T02:51:15.846Z,25.73
2023-03-24T02:53:56.776Z,23.50
2023-03-24T02:59:18.771Z,27.20
2023-03-24T03:01:57.725Z,25.77
2023-03-24T03:04:46.338Z,19.88
2023-03-24T03:07:16.656Z,23.92
2023-03-24T03:09:53.145Z,26.73
2023-03-24T03:12:27.090Z,20.35
2023-03-24T03:15:01.348Z,18.85
2023-03-24T03:17:34.362Z,21.15
2023-03-24T03:20:08.686Z,22.40
2023-03-24T03:22:43.930Z,23.08
2023-03-24T03:25:15.491Z,27.90
2023-03-24T03:27:46.914Z,27.63
2023-03-24T03:30:20.908Z,31.70
2023-03-24T03:32:56.631Z,25.33
2023-03-24T03:35:31.002Z,27.63
2023-03-24T03:38:11.705Z,34.53
2023-03-24T03:43:21.175Z,31.40
2023-03-24T03:45:49.849Z,32.15
2023-03-24T03:48:21.569Z,34.78
2023-03-24T03:50:55.250Z,31.00
2023-03-24T03:53:39.229Z,33.85
2023-03-24T03:56:08.690Z,29.27
2023-03-24T03:58:46.759Z,31.58
2023-03-24T04:01:21.532Z,29.52
2023-03-24T04:05:20.775Z,35.45
2023-03-24T04:08:19.066Z,33.95
2023-03-24T04:11:50.541Z,36.72
2023-03-24T04:15:15.732Z,34.42
2023-03-24T04:18:32.735Z,33.50
2023-03-24T04:21:28.620Z,36.03
2023-03-24T04:24:11.393Z,42.80
2023-03-24T04:26:49.717Z,40.03
2023-03-24T04:29:26.563Z,44.10
2023-03-24T04:32:03.072Z,45.25
2023-03-24T04:34:37.205Z,42.75
2023-03-24T04:37:21.721Z,49.50
2023-03-24T04:40:15.493Z,44.80
2023-03-24T04:42:48.205Z,49.58
2023-03-24T04:45:18.564Z,49.25
2023-03-24T04:47:56.873Z,45.53
2023-03-24T04:50:55.698Z,53.63
2023-03-24T04:53:25.497Z,38.67
2023-03-24T04:56:20.108Z,44.53
2023-03-24T04:59:01.651Z,43.40
2023-03-24T05:01:30.492Z,41.22
2023-03-24T05:04:19.059Z,40.75
2023-03-24T05:06:49.660Z,47.97
2023-03-24T05:09:25.865Z,37.13
2023-03-24T05:11:54.559Z,43.03
2023-03-24T05:14:24.584Z,35.55
2023-03-24T05:16:53.207Z,37.50
2023-03-24T05:19:24.098Z,39.00
2023-03-24T05:21:53.676Z,44.13
2023-03-24T05:24:22.391Z,42.13
2023-03-24T05:26:50.929Z,28.83
2023-03-24T05:31:49.840Z,34.25
2023-03-24T05:34:24.590Z,40.22
2023-03-24T05:37:14.347Z,34.97
2023-03-24T05:39:42.674Z,33.03
2023-03-24T05:42:31.232Z,34.67
2023-03-24T05:45:02.141Z,37.45
2023-03-24T05:47:31.674Z,36.03
2023-03-24T05:50:01.454Z,36.80
2023-03-24T05:52:31.699Z,39.80
2023-03-24T05:55:13.274Z,43.03
2023-03-24T05:57:41.807Z,36.20
2023-03-24T06:00:28.204Z,44.10
2023-03-24T06:03:05.523Z,40.58
2023-03-24T06:05:50.802Z,43.78
2023-03-24T06:08:19.498Z,42.30
2023-03-24T06:10:48.493Z,33.88
2023-03-24T06:13:17.213Z,44.03
2023-03-24T06:15:48.085Z,39.20
2023-03-24T06:18:35.209Z,36.40
2023-03-24T06:21:14.539Z,39.83
2023-03-24T06:23:44.496Z,37.42
2023-03-24T06:26:16.881Z,37.63
2023-03-24T06:28:51.877Z,31.88
2023-03-24T06:31:21.597Z,34.72
2023-03-24T06:33:53.252Z,32.33
2023-03-24T06:36:25.740Z,39.78
2023-03-24T06:38:54.526Z,37.45
2023-03-24T06:41:23.355Z,39.38
2023-03-24T06:43:58.997Z,35.28
2023-03-24T06:46:27.540Z,35.00
2023-03-24T06:48:56.423Z,29.55
2023-03-24T06:51:26.260Z,35.90
2023-03-24T06:53:54.831Z,37.55
2023-03-24T06:56:24.488Z,34.67
2023-03-24T06:58:58.167Z,38.47
2023-03-24T07:01:35.158Z,37.75
2023-03-24T07:04:26.069Z,34.55
2023-03-24T07:07:38.036Z,27.63
2023-03-24T07:10:14.085Z,33.08
2023-03-24T07:12:42.770Z,35.45
2023-03-24T07:15:12.130Z,29.40
2023-03-24T07:17:42.883Z,29.52
2023-03-24T07:20:20.661Z,32.97
2023-03-24T07:22:57.672Z,38.00
2023-03-24T07:25:55.061Z,25.38
2023-03-24T07:28:41.411Z,27.65
2023-03-24T07:31:12.389Z,26.42
2023-03-24T07:33:42.604Z,30.85
2023-03-24T07:36:11.179Z,33.42
2023-03-24T07:38:42.985Z,28.08
2023-03-24T07:41:16.407Z,25.63
2023-03-24T07:43:51.856Z,30.90
2023-03-24T07:46:40.893Z,24.30
2023-03-24T07:49:19.036Z,27.15
2023-03-24T07:51:59.130Z,27.50
2023-03-24T07:54:36.628Z,26.55
2023-03-24T07:57:05.403Z,24.00
2023-03-24T07:59:34.320Z,27.05
2023-03-24T08:02:28.902Z,25.10
2023-03-24T08:05:16.603Z,24.02
2023-03-24T08:08:06.746Z,24.40
2023-03-24T08:10:36.689Z,25.10
2023-03-24T08:13:05.586Z,27.02
2023-03-24T08:15:33.977Z,24.48
2023-03-24T08:18:02.445Z,24.98
2023-03-24T08:20:30.779Z,21.80
2023-03-24T08:23:00.933Z,20.95
2023-03-24T08:25:29.321Z,21.27
2023-03-24T08:27:59.145Z,21.65
2023-03-24T08:30:28.274Z,23.17
2023-03-24T08:32:59.264Z,23.02
2023-03-24T08:35:31.409Z,22.48
2023-03-24T08:38:01.084Z,24.77
2023-03-24T08:40:31.822Z,30.75
2023-03-24T08:45:33.557Z,23.45
2023-03-24T08:48:05.671Z,25.35
2023-03-24T08:50:37.332Z,19.88
2023-03-24T08:53:06.328Z,22.35
2023-03-24T08:55:34.807Z,24.08
2023-03-24T08:58:04.684Z,27.02
2023-03-24T09:00:33.036Z,23.85
2023-03-24T09:03:01.990Z,28.35
2023-03-24T09:05:43.853Z,25.27
2023-03-24T09:08:13.994Z,25.95
2023-03-24T09:10:43.922Z,28.42
2023-03-24T09:13:14.190Z,28.13
2023-03-24T09:15:48.767Z,30.50
2023-03-24T09:18:18.405Z,27.25
2023-03-24T09:20:47.392Z,26.77
2023-03-24T09:23:16.363Z,29.95
2023-03-24T09:25:45.106Z,25.30
2023-03-24T09:28:16.186Z,26.02
2023-03-24T09:30:45.279Z,28.48
2023-03-24T09:33:14.019Z,25.67
2023-03-24T09:35:43.053Z,25.92
2023-03-24T09:38:12.266Z,24.52
2023-03-24T09:40:41.824Z,21.15
2023-03-24T09:43:21.967Z,25.77
2023-03-24T09:45:53.843Z,22.08
2023-03-24T09:48:32.905Z,29.60
2023-03-24T09:51:05.320Z,27.75
2023-03-24T09:53:44.362Z,21.35
2023-03-24T09:56:17.390Z,21.92
2023-03-24T09:58:54.459Z,27.75
2023-03-24T10:01:23.314Z,24.80
2023-03-24T10:03:51.763Z,24.83
2023-03-24T10:06:26.615Z,30.17
2023-03-24T10:09:14.745Z,23.88
2023-03-24T10:11:51.231Z,21.05
2023-03-24T10:14:39.498Z,22.90
2023-03-24T10:17:21.897Z,20.08
2023-03-24T10:20:00.290Z,21.77
2023-03-24T10:22:37.625Z,21.35
2023-03-24T10:25:16.075Z,23.17
2023-03-24T10:27:50.851Z,28.55
2023-03-24T10:30:24.524Z,28.95
2023-03-24T10:32:54.741Z,23.05
2023-03-24T10:35:28.989Z,22.08
2023-03-24T10:38:02.176Z,21.40
2023-03-24T10:40:35.026Z,20.83
2023-03-24T10:43:09.793Z,22.98
2023-03-24T10:45:42.982Z,19.80
2023-03-24T10:48:14.937Z,21.58
2023-03-24T10:50:46.188Z,21.20
2023-03-24T10:53:20.401Z,27.52
2023-03-24T10:55:51.797Z,23.10
2023-03-24T10:58:31.195Z,24.48
2023-03-24T11:01:01.776Z,20.98
2023-03-24T11:03:33.096Z,19.02
2023-03-24T11:06:03.901Z,19.73
2023-03-24T11:11:16.480Z,19.73
2023-03-24T11:16:30.213Z,18.10
2023-03-24T11:19:01.609Z,19.00
2023-03-24T11:21:32.480Z,19.23
2023-03-24T11:24:02.979Z,18.40
2023-03-24T11:26:34.712Z,18.38
2023-03-24T11:29:07.600Z,18.48
2023-03-24T11:31:40.091Z,10.80
2023-03-24T11:34:11.818Z,23.92
2023-03-24T11:36:46.797Z,16.20
2023-03-24T11:39:21.369Z,19.58
2023-03-24T11:42:05.069Z,15.20
2023-03-24T11:44:45.543Z,18.95
2023-03-24T11:47:25.152Z,14.20
2023-03-24T11:50:05.228Z,24.05
2023-03-24T11:52:39.724Z,27.20
2023-03-24T11:55:17.474Z,23.52
2023-03-24T11:57:55.621Z,26.73
2023-03-24T12:00:29.844Z,25.90
2023-03-24T12:03:37.299Z,20.38
2023-03-24T12:06:22.645Z,23.77
2023-03-24T12:09:06.114Z,22.40
2023-03-24T12:11:50.756Z,23.77
2023-03-24T12:14:29.440Z,20.27
2023-03-24T12:17:03.726Z,20.20
2023-03-24T12:20:14.618Z,21.10
2023-03-24T12:26:01.426Z,22.08
2023-03-24T12:28:53.455Z,25.95
2023-03-24T12:31:44.083Z,21.23
2023-03-24T12:34:46.082Z,22.83
2023-03-24T12:37:26.653Z,25.42
2023-03-24T12:40:12.946Z,24.95
2023-03-24T12:42:44.476Z,27.45
2023-03-24T12:45:27.997Z,21.10
2023-03-24T12:48:15.470Z,21.10
2023-03-24T12:51:00.104Z,18.63
2023-03-24T12:53:45.059Z,17.58
2023-03-24T12:56:18.470Z,20.05
2023-03-24T12:58:51.124Z,22.85
2023-03-24T13:01:27.059Z,19.77
2023-03-24T13:04:05.513Z,19.08
2023-03-24T13:06:40.326Z,20.92
2023-03-24T13:09:21.061Z,12.93
2023-03-24T13:14:29.865Z,9.82
2023-03-24T13:17:06.042Z,8.82
2023-03-24T13:19:37.804Z,9.45
2023-03-24T13:22:12.890Z,14.77
2023-03-24T13:24:42.871Z,16.67
2023-03-24T13:27:17.680Z,15.75
2023-03-24T13:30:09.048Z,19.40
2023-03-24T13:32:41.788Z,15.98
2023-03-24T13:35:21.792Z,18.20
2023-03-24T13:37:55.559Z,22.90
2023-03-24T13:40:28.078Z,16.58
2023-03-24T13:42:58.573Z,22.10
2023-03-24T13:45:40.718Z,20.10
2023-03-24T13:48:25.895Z,18.90
2023-03-24T13:51:00.644Z,19.48
2023-03-24T13:53:41.188Z,21.83
2023-03-24T13:56:13.475Z,26.67
2023-03-24T13:58:52.829Z,22.33
2023-03-24T14:01:38.761Z,16.30
2023-03-24T14:04:29.110Z,15.02
2023-03-24T14:06:59.919Z,16.92
2023-03-24T14:09:30.733Z,11.38
2023-03-24T14:15:19.232Z,17.05
2023-03-24T14:17:50.627Z,16.77
2023-03-24T14:20:41.180Z,15.77
2023-03-24T14:23:24.596Z,19.52
2023-03-24T14:25:56.521Z,21.65
2023-03-24T14:28:38.609Z,24.75
2023-03-24T14:31:20.797Z,25.00
2023-03-24T14:34:10.953Z,25.08
2023-03-24T14:36:42.440Z,23.08
2023-03-24T14:39:22.136Z,22.70
2023-03-24T14:41:52.638Z,24.83
2023-03-24T14:44:56.966Z,32.50
2023-03-24T14:47:29.867Z,17.83
2023-03-24T14:50:01.253Z,19.67
2023-03-24T14:52:36.581Z,17.85
2023-03-24T14:55:09.037Z,23.67
2023-03-24T14:57:41.915Z,32.20
2023-03-24T15:00:20.566Z,22.20
2023-03-24T15:02:51.652Z,21.77
2023-03-24T15:05:26.063Z,23.33
2023-03-24T15:08:12.798Z,26.25
2023-03-24T15:10:50.073Z,21.02
2023-03-24T15:13:34.098Z,15.02
2023-03-24T15:16:08.663Z,18.55
2023-03-24T15:18:40.365Z,18.83
2023-03-24T15:21:17.777Z,22.30
2023-03-24T15:23:49.102Z,19.92
2023-03-24T15:26:18.787Z,20.98
2023-03-24T15:28:47.434Z,18.33
2023-03-24T15:31:17.258Z,24.08
2023-03-24T15:33:47.029Z,15.10
2023-03-24T15:36:18.825Z,22.67
2023-03-24T15:38:50.827Z,20.15
2023-03-24T15:41:21.712Z,22.85
2023-03-24T15:43:53.692Z,18.05
2023-03-24T15:46:27.536Z,17.08
2023-03-24T15:48:57.873Z,20.42
2023-03-24T15:51:48.879Z,22.73
2023-03-24T15:54:24.403Z,19.95
2023-03-24T15:57:17.258Z,20.02
2023-03-24T15:59:49.113Z,22.08
2023-03-24T16:02:38.981Z,20.85
2023-03-24T16:05:21.982Z,26.33
2023-03-24T16:07:58.816Z,23.10
2023-03-24T16:10:39.312Z,20.95
2023-03-24T16:13:18.268Z,25.17
2023-03-24T16:15:49.456Z,21.40
2023-03-24T16:18:25.015Z,19.48
2023-03-24T16:20:53.440Z,19.85
2023-03-24T16:23:21.720Z,18.52
2023-03-24T16:25:50.052Z,21.77
2023-03-24T16:28:21.819Z,15.18
2023-03-24T16:30:57.835Z,19.65
2023-03-24T16:33:28.382Z,20.38
2023-03-24T16:35:56.786Z,17.50
2023-03-24T16:38:25.101Z,20.75
2023-03-24T16:40:56.653Z,19.88
2023-03-24T16:43:27.361Z,19.13
2023-03-24T16:45:55.921Z,23.17
2023-03-24T16:48:24.321Z,17.05
2023-03-24T16:50:55.955Z,20.75
2023-03-24T16:53:24.325Z,18.70
2023-03-24T16:55:52.670Z,17.63
2023-03-24T16:58:21.082Z,15.60
2023-03-24T17:00:50.164Z,19.73
2023-03-24T17:03:19.007Z,18.90
2023-03-24T17:05:51.152Z,16.52
2023-03-24T17:08:20.944Z,17.88
2023-03-24T17:10:53.006Z,18.53
2023-03-24T17:13:23.595Z,13.43
2023-03-24T17:15:52.590Z,13.90
2023-03-24T17:18:21.492Z,25.65
2023-03-24T17:20:50.101Z,19.95
2023-03-24T17:23:20.193Z,17.17
2023-03-24T17:25:48.721Z,15.18
2023-03-24T17:28:18.323Z,18.70
2023-03-24T17:30:47.009Z,18.13
2023-03-24T17:33:15.876Z,14.50
2023-03-24T17:35:46.640Z,15.55
2023-03-24T17:38:16.598Z,20.35
2023-03-24T17:40:47.527Z,21.92
2023-03-24T17:43:16.659Z,21.65
2023-03-24T17:45:45.013Z,23.40
2023-03-24T17:48:13.389Z,17.75
2023-03-24T17:50:42.094Z,21.75
2023-03-24T17:53:13.641Z,21.45
2023-03-24T17:55:42.653Z,17.83
2023-03-24T17:58:12.281Z,18.00
2023-03-24T18:00:41.475Z,19.02
2023-03-24T18:03:09.843Z,16.40
2023-03-24T18:05:38.227Z,23.67
2023-03-24T18:08:07.384Z,24.35
2023-03-24T18:10:36.915Z,19.40
2023-03-24T18:13:06.008Z,17.88
2023-03-24T18:15:36.754Z,19.05
2023-03-24T18:18:05.863Z,26.58
2023-03-24T18:20:36.373Z,17.23
2023-03-24T18:23:04.826Z,20.98
2023-03-24T18:25:33.799Z,18.75
2023-03-24T18:28:02.568Z,24.38
2023-03-24T18:30:32.244Z,26.85
2023-03-24T18:33:02.292Z,21.38
2023-03-24T18:35:30.733Z,28.33
2023-03-24T18:37:59.105Z,20.63
2023-03-24T18:40:27.646Z,25.90
2023-03-24T18:42:55.946Z,22.08
2023-03-24T18:45:24.293Z,26.08
2023-03-24T18:47:52.707Z,20.05
2023-03-24T18:50:22.453Z,21.63
2023-03-24T18:52:50.819Z,17.63
2023-03-24T18:55:20.845Z,20.67
2023-03-24T18:57:49.119Z,20.75
2023-03-24T19:00:20.162Z,20.60
2023-03-24T19:02:48.669Z,23.80
2023-03-24T19:05:17.213Z,21.88
2023-03-24T19:07:48.529Z,18.35
2023-03-24T19:10:17.135Z,20.30
2023-03-24T19:12:45.688Z,23.73
2023-03-24T19:15:14.604Z,23.10
2023-03-24T19:17:42.911Z,22.33
2023-03-24T19:20:12.745Z,18.95
2023-03-24T19:22:41.787Z,24.93
2023-03-24T19:25:11.572Z,20.25
2023-03-24T19:27:39.914Z,15.13
2023-03-24T19:30:09.973Z,22.63
2023-03-24T19:32:38.341Z,22.67
2023-03-24T19:35:08.257Z,22.95
2023-03-24T19:37:37.681Z,19.50
2023-03-24T19:40:11.441Z,24.38
2023-03-24T19:42:42.000Z,19.05
2023-03-24T19:45:12.313Z,21.10
2023-03-24T19:47:40.903Z,18.73
2023-03-24T19:50:11.295Z,24.70
2023-03-24T19:52:39.766Z,19.92
2023-03-24T19:55:08.974Z,15.70
2023-03-24T19:57:37.587Z,22.45
2023-03-24T20:00:11.752Z,20.25
2023-03-24T20:02:40.386Z,21.85
2023-03-24T20:05:10.836Z,22.20
2023-03-24T20:07:39.786Z,16.35
2023-03-24T20:10:09.921Z,16.05
2023-03-24T20:12:38.369Z,25.90
2023-03-24T20:15:09.589Z,19.70
2023-03-24T20:17:39.370Z,16.02
2023-03-24T20:20:11.301Z,16.92
2023-03-24T20:22:42.108Z,23.67
2023-03-24T20:25:12.401Z,22.05
2023-03-24T20:27:41.215Z,14.80
2023-03-24T20:30:13.650Z,18.83
2023-03-24T20:32:42.151Z,27.45
2023-03-24T20:35:11.854Z,24.60
2023-03-24T20:37:40.192Z,19.30
2023-03-24T20:40:10.775Z,23.77
2023-03-24T20:42:39.922Z,18.48
2023-03-24T20:45:12.717Z,21.38
2023-03-24T20:47:41.307Z,22.48
2023-03-24T20:50:11.513Z,32.60
2023-03-24T20:52:41.337Z,26.98
2023-03-24T20:55:11.533Z,26.90
2023-03-24T20:57:40.223Z,24.23
2023-03-24T21:00:14.326Z,28.23
2023-03-24T21:02:43.616Z,28.17
2023-03-24T21:05:12.343Z,29.55
2023-03-24T21:07:43.685Z,20.65
2023-03-24T21:10:12.740Z,23.65
2023-03-24T21:12:52.330Z,23.25
2023-03-24T21:15:27.524Z,21.80
2023-03-24T21:17:56.142Z,28.08
2023-03-24T21:20:26.850Z,21.35
2023-03-24T21:25:27.512Z,24.48
2023-03-24T21:27:56.868Z,19.77
2023-03-24T21:30:27.925Z,22.40
2023-03-24T21:32:58.088Z,18.30
2023-03-24T21:35:26.586Z,23.20
2023-03-24T21:37:56.142Z,18.40
2023-03-24T21:40:26.577Z,20.30
2023-03-24T21:42:55.915Z,20.60
2023-03-24T21:45:27.569Z,17.30
2023-03-24T21:47:56.069Z,20.83
2023-03-24T21:50:25.788Z,24.50
2023-03-24T21:52:55.454Z,21.17
2023-03-24T21:55:26.904Z,25.60
2023-03-24T21:57:56.686Z,26.73
2023-03-24T22:00:29.978Z,19.77
2023-03-24T22:02:58.556Z,20.85
2023-03-24T22:05:27.726Z,22.30
2023-03-24T22:07:57.017Z,24.08
2023-03-24T22:10:29.647Z,23.75
2023-03-24T22:12:58.286Z,23.23
2023-03-24T22:15:29.409Z,24.20
2023-03-24T22:17:58.865Z,31.55
2023-03-24T22:20:28.132Z,23.42
2023-03-24T22:22:56.588Z,24.02
2023-03-24T22:25:24.996Z,24.13
2023-03-24T22:27:56.046Z,23.73
2023-03-24T22:30:24.637Z,22.77
2023-03-24T22:32:54.282Z,24.63
2023-03-24T22:35:23.328Z,24.58
2023-03-24T22:37:51.734Z,34.40
2023-03-24T22:40:20.217Z,23.95
2023-03-24T22:42:48.545Z,30.77
2023-03-24T22:45:17.180Z,31.23
2023-03-24T22:47:45.545Z,24.83
2023-03-24T22:50:15.316Z,25.95
2023-03-24T22:52:43.663Z,24.80
2023-03-24T22:55:12.048Z,22.38
2023-03-24T22:57:40.445Z,26.20
2023-03-24T23:00:10.941Z,24.50
2023-03-24T23:02:39.621Z,26.98
2023-03-24T23:05:08.413Z,27.65
2023-03-24T23:07:38.340Z,30.27
2023-03-24T23:10:08.442Z,24.17
2023-03-24T23:12:37.662Z,27.05
2023-03-24T23:15:07.719Z,28.00
2023-03-24T23:17:36.466Z,27.10
2023-03-24T23:20:07.721Z,26.25
2023-03-24T23:22:38.356Z,29.55
2023-03-24T23:25:08.061Z,25.05
2023-03-24T23:27:37.522Z,33.87
2023-03-24T23:30:08.876Z,28.95
2023-03-24T23:32:38.084Z,28.98
2023-03-24T23:35:09.151Z,25.95
2023-03-24T23:37:39.675Z,27.58
2023-03-24T23:40:12.861Z,25.02
2023-03-24T23:42:42.785Z,33.08
2023-03-24T23:45:14.781Z,33.85
2023-03-24T23:47:44.133Z,26.23
2023-03-24T23:50:13.533Z,26.88
2023-03-24T23:52:43.972Z,29.85
2023-03-24T23:55:13.010Z,28.80
2023-03-24T23:57:42.731Z,29.00
